Time;durP1;ratioP1;P1;durP2;ratioP2;P2;SDS_P1;SDS_P2;PMS_P1;PMS_P2;Temp;Humidity;BMP_temperature;BMP_pressure;BME280_temperature;BME280_humidity;BME280_pressure;Samples;Min_cycle;Max_cycle;Signal;HPM_P1;HPM_P2
2022/07/20 00:00:59;;;;;;;8.95;6.03;;;;;;;;;;5081871;28;20023;-65
2022/07/20 00:03:24;;;;;;;9.00;5.75;;;;;;;;;;5083276;28;20031;-64
2022/07/20 00:05:50;;;;;;;9.18;6.28;;;;;;;;;;5083654;28;20323;-64
2022/07/20 00:11:19;;;;;;;8.90;6.35;;;;;;;;;;5090565;28;20036;-65
2022/07/20 00:13:46;;;;;;;10.18;5.88;;;;;;;;;;5093474;28;20092;-65
2022/07/20 00:18:47;;;;;;;13.23;6.18;;;;;;;;;;5451559;22;20792;-64
2022/07/20 00:21:13;;;;;;;8.40;5.75;;;;;;;;;;5059553;28;20021;-64
2022/07/20 00:23:38;;;;;;;10.82;5.70;;;;;;;;;;5050017;28;20428;-64
2022/07/20 00:26:04;;;;;;;10.82;5.80;;;;;;;;;;5065889;28;20384;-63
2022/07/20 00:28:29;;;;;;;9.35;6.32;;;;;;;;;;5048652;28;20028;-63
2022/07/20 00:30:55;;;;;;;8.32;5.60;;;;;;;;;;5048607;28;20025;-63
2022/07/20 00:33:20;;;;;;;10.73;6.55;;;;;;;;;;5047763;28;20465;-63
2022/07/20 00:35:46;;;;;;;11.80;5.95;;;;;;;;;;5049946;28;20175;-63
2022/07/20 00:38:12;;;;;;;11.10;5.80;;;;;;;;;;5048171;28;20554;-63
2022/07/20 00:40:38;;;;;;;12.70;6.13;;;;;;;;;;5067499;28;20025;-64
2022/07/20 00:43:04;;;;;;;8.60;5.82;;;;;;;;;;5068373;28;20024;-63
2022/07/20 00:45:29;;;;;;;9.35;5.57;;;;;;;;;;5067334;28;20074;-64
2022/07/20 00:47:55;;;;;;;9.02;6.03;;;;;;;;;;5065544;28;20133;-63
2022/07/20 00:50:20;;;;;;;15.00;5.82;;;;;;;;;;5065268;28;20040;-63
2022/07/20 00:52:46;;;;;;;12.13;5.90;;;;;;;;;;5055856;28;20028;-64
2022/07/20 00:55:11;;;;;;;9.32;6.00;;;;;;;;;;5047805;28;20536;-64
2022/07/20 00:57:37;;;;;;;9.90;6.30;;;;;;;;;;5048449;28;20504;-63
2022/07/20 01:00:06;;;;;;;12.20;6.95;;;;;;;;;;5047256;28;20095;-63
2022/07/20 01:02:32;;;;;;;11.25;6.55;;;;;;;;;;5066551;28;20027;-63
2022/07/20 01:04:57;;;;;;;10.80;6.70;;;;;;;;;;5067880;28;20509;-64
2022/07/20 01:07:23;;;;;;;11.10;6.68;;;;;;;;;;5067911;28;20040;-64
2022/07/20 01:09:48;;;;;;;9.27;6.25;;;;;;;;;;5067929;28;20100;-64
2022/07/20 01:12:14;;;;;;;10.00;5.85;;;;;;;;;;5068138;28;20143;-63
2022/07/20 01:14:40;;;;;;;11.43;6.45;;;;;;;;;;5067266;28;20032;-63
2022/07/20 01:17:05;;;;;;;9.15;6.07;;;;;;;;;;5066938;28;20032;-63
2022/07/20 01:19:31;;;;;;;12.98;7.05;;;;;;;;;;5066949;28;20106;-63
2022/07/20 01:21:56;;;;;;;9.88;6.30;;;;;;;;;;5068139;28;20032;-63
2022/07/20 01:24:22;;;;;;;9.65;6.28;;;;;;;;;;5066602;28;20025;-63
2022/07/20 01:26:47;;;;;;;10.10;6.53;;;;;;;;;;5068199;28;20032;-64
2022/07/20 01:29:14;;;;;;;11.98;6.47;;;;;;;;;;5068018;28;20496;-64
2022/07/20 01:31:40;;;;;;;10.43;6.60;;;;;;;;;;5067692;28;20021;-63
2022/07/20 01:34:06;;;;;;;10.38;6.68;;;;;;;;;;5067526;28;20566;-63
2022/07/20 01:36:32;;;;;;;9.27;6.22;;;;;;;;;;5068022;28;20096;-64
2022/07/20 01:38:57;;;;;;;13.00;6.38;;;;;;;;;;5067800;28;20085;-64
2022/07/20 01:41:23;;;;;;;12.43;7.35;;;;;;;;;;5067805;28;20056;-63
2022/07/20 01:43:49;;;;;;;11.02;6.57;;;;;;;;;;5067729;28;20044;-64
2022/07/20 01:46:15;;;;;;;12.85;6.88;;;;;;;;;;5067665;28;20029;-63
2022/07/20 01:48:41;;;;;;;9.35;6.45;;;;;;;;;;5066497;28;20473;-63
2022/07/20 01:51:07;;;;;;;12.85;6.95;;;;;;;;;;5067336;28;20397;-63
2022/07/20 01:53:32;;;;;;;13.40;7.28;;;;;;;;;;5058051;28;20029;-64
2022/07/20 01:55:58;;;;;;;17.15;7.93;;;;;;;;;;5047425;28;20021;-63
2022/07/20 01:58:24;;;;;;;13.25;7.57;;;;;;;;;;5047888;28;20029;-64
2022/07/20 02:00:50;;;;;;;12.32;6.93;;;;;;;;;;5051287;28;20025;-64
2022/07/20 02:03:16;;;;;;;11.15;7.07;;;;;;;;;;5050264;28;20082;-63
2022/07/20 02:05:42;;;;;;;11.00;6.85;;;;;;;;;;5051257;28;20127;-64
2022/07/20 02:08:08;;;;;;;14.95;7.70;;;;;;;;;;5050932;28;20500;-64
2022/07/20 02:10:33;;;;;;;11.27;6.97;;;;;;;;;;5051260;28;20393;-64
2022/07/20 02:12:59;;;;;;;12.40;6.70;;;;;;;;;;5051914;28;20095;-64
2022/07/20 02:18:11;;;;;;;12.57;7.10;;;;;;;;;;5068791;28;20060;-63
2022/07/20 02:20:37;;;;;;;9.52;6.53;;;;;;;;;;5070641;28;20040;-64
2022/07/20 02:23:05;;;;;;;13.10;6.68;;;;;;;;;;5070473;28;20569;-63
2022/07/20 02:25:31;;;;;;;12.55;7.10;;;;;;;;;;5070899;28;20117;-64
2022/07/20 02:27:57;;;;;;;13.50;6.60;;;;;;;;;;5071072;28;20078;-63
2022/07/20 02:30:22;;;;;;;11.23;7.82;;;;;;;;;;5052624;28;20962;-63
2022/07/20 02:32:48;;;;;;;12.85;7.68;;;;;;;;;;5070465;28;20029;-64
2022/07/20 02:35:15;;;;;;;13.43;7.07;;;;;;;;;;5070182;28;20396;-63
2022/07/20 02:37:41;;;;;;;12.18;7.43;;;;;;;;;;5070769;28;20115;-64
2022/07/20 02:40:08;;;;;;;11.40;7.70;;;;;;;;;;5070565;28;20375;-63
2022/07/20 02:42:33;;;;;;;11.05;7.15;;;;;;;;;;5070606;28;20025;-63
2022/07/20 02:44:59;;;;;;;14.75;7.55;;;;;;;;;;5070457;28;20338;-63
2022/07/20 02:47:25;;;;;;;12.77;7.60;;;;;;;;;;5070246;28;20024;-64
2022/07/20 02:49:50;;;;;;;15.77;8.55;;;;;;;;;;5069843;28;20040;-63
2022/07/20 02:52:16;;;;;;;17.45;8.18;;;;;;;;;;5070450;28;20116;-63
2022/07/20 02:54:41;;;;;;;16.83;7.65;;;;;;;;;;5069637;28;20104;-63
2022/07/20 02:57:07;;;;;;;14.82;7.95;;;;;;;;;;5070175;28;20021;-63
2022/07/20 02:59:32;;;;;;;13.55;7.43;;;;;;;;;;5069614;28;20617;-63
2022/07/20 03:01:58;;;;;;;10.20;7.20;;;;;;;;;;5070755;28;20089;-64
2022/07/20 03:04:23;;;;;;;17.73;10.90;;;;;;;;;;5068757;28;20036;-63
2022/07/20 03:06:49;;;;;;;16.70;9.02;;;;;;;;;;5069137;28;20051;-63
2022/07/20 03:09:14;;;;;;;15.85;7.90;;;;;;;;;;5068979;28;20036;-63
2022/07/20 03:11:40;;;;;;;17.73;8.40;;;;;;;;;;5069405;28;20029;-63
2022/07/20 03:14:06;;;;;;;17.75;7.85;;;;;;;;;;5069441;28;20024;-64
2022/07/20 03:16:32;;;;;;;13.77;7.55;;;;;;;;;;5069590;28;20024;-63
2022/07/20 03:18:57;;;;;;;10.68;6.93;;;;;;;;;;5069027;28;20131;-64
2022/07/20 03:21:25;;;;;;;21.25;8.45;;;;;;;;;;5068844;28;20036;-64
2022/07/20 03:23:51;;;;;;;17.25;8.18;;;;;;;;;;5069454;28;20048;-63
2022/07/20 03:26:18;;;;;;;13.30;7.05;;;;;;;;;;5069345;28;20032;-63
2022/07/20 03:28:44;;;;;;;15.20;7.55;;;;;;;;;;5070260;28;20318;-64
2022/07/20 03:31:09;;;;;;;33.08;9.10;;;;;;;;;;5069828;28;20166;-64
2022/07/20 03:33:35;;;;;;;12.80;7.35;;;;;;;;;;5069320;28;20037;-63
2022/07/20 03:36:01;;;;;;;15.95;7.90;;;;;;;;;;5068819;28;20167;-64
2022/07/20 03:38:26;;;;;;;14.65;7.07;;;;;;;;;;5069388;28;20023;-63
2022/07/20 03:40:52;;;;;;;15.77;8.40;;;;;;;;;;5069911;28;20381;-63
2022/07/20 03:43:17;;;;;;;13.77;7.53;;;;;;;;;;5068633;28;20560;-63
2022/07/20 03:45:43;;;;;;;14.35;7.22;;;;;;;;;;5068201;28;20416;-64
2022/07/20 03:48:08;;;;;;;14.65;8.13;;;;;;;;;;5067868;28;20028;-63
2022/07/20 03:50:34;;;;;;;16.13;7.70;;;;;;;;;;5068990;28;20028;-64
2022/07/20 03:52:59;;;;;;;17.20;7.38;;;;;;;;;;5069884;28;20029;-64
2022/07/20 03:55:25;;;;;;;14.25;7.65;;;;;;;;;;5068746;28;20020;-63
2022/07/20 03:57:50;;;;;;;16.58;8.57;;;;;;;;;;5069182;28;20025;-63
2022/07/20 04:00:16;;;;;;;16.35;8.05;;;;;;;;;;5069004;28;20098;-63
2022/07/20 04:02:42;;;;;;;18.77;7.80;;;;;;;;;;5069367;28;20023;-63
2022/07/20 04:05:08;;;;;;;17.10;7.57;;;;;;;;;;5068946;28;20115;-63
2022/07/20 04:07:33;;;;;;;23.23;7.95;;;;;;;;;;5068193;28;20036;-63
2022/07/20 04:09:59;;;;;;;27.67;8.32;;;;;;;;;;5068348;28;20070;-63
2022/07/20 04:12:25;;;;;;;17.17;7.57;;;;;;;;;;5068577;28;20516;-64
2022/07/20 04:14:52;;;;;;;29.60;8.40;;;;;;;;;;5068917;28;20097;-63
2022/07/20 04:17:19;;;;;;;25.85;8.18;;;;;;;;;;5067990;28;20078;-64
2022/07/20 04:19:45;;;;;;;27.10;8.65;;;;;;;;;;5063514;28;20236;-64
2022/07/20 04:22:11;;;;;;;25.15;8.13;;;;;;;;;;5067534;28;20115;-64
2022/07/20 04:24:36;;;;;;;30.13;7.90;;;;;;;;;;5068241;28;20115;-64
2022/07/20 04:27:03;;;;;;;46.58;9.30;;;;;;;;;;5067550;28;20028;-64
2022/07/20 04:29:29;;;;;;;26.83;8.77;;;;;;;;;;5048628;28;20025;-64
2022/07/20 04:31:55;;;;;;;27.30;8.05;;;;;;;;;;5047914;28;20094;-64
2022/07/20 04:34:21;;;;;;;28.25;8.15;;;;;;;;;;5047687;28;20033;-63
2022/07/20 04:36:46;;;;;;;14.20;7.70;;;;;;;;;;5048672;28;20036;-64
2022/07/20 04:39:12;;;;;;;15.77;7.57;;;;;;;;;;5048176;28;20378;-64
2022/07/20 04:41:38;;;;;;;20.90;7.65;;;;;;;;;;5047798;28;20524;-63
2022/07/20 04:44:04;;;;;;;19.33;7.82;;;;;;;;;;5048205;28;20033;-64
2022/07/20 04:46:30;;;;;;;11.77;7.80;;;;;;;;;;5048868;28;20024;-63
2022/07/20 04:48:56;;;;;;;11.73;7.03;;;;;;;;;;5048017;28;20074;-64
2022/07/20 04:51:22;;;;;;;14.27;7.80;;;;;;;;;;5047965;28;20408;-64
2022/07/20 04:53:48;;;;;;;12.27;7.68;;;;;;;;;;5048394;28;20021;-64
2022/07/20 04:56:13;;;;;;;11.48;7.53;;;;;;;;;;5048625;28;20075;-65
2022/07/20 04:58:39;;;;;;;13.55;7.40;;;;;;;;;;5068626;28;20444;-64
2022/07/20 05:01:04;;;;;;;12.73;8.25;;;;;;;;;;5067774;28;20024;-64
2022/07/20 05:03:30;;;;;;;21.67;8.38;;;;;;;;;;5067750;28;20026;-64
2022/07/20 05:05:55;;;;;;;15.02;7.63;;;;;;;;;;5068801;28;20047;-64
2022/07/20 05:08:21;;;;;;;11.10;7.35;;;;;;;;;;5066728;28;20119;-64
2022/07/20 05:10:46;;;;;;;13.70;7.40;;;;;;;;;;5068341;28;20445;-64
2022/07/20 05:13:12;;;;;;;10.88;7.85;;;;;;;;;;5067166;28;20027;-64
2022/07/20 05:15:38;;;;;;;12.48;7.57;;;;;;;;;;5068046;28;20039;-64
2022/07/20 05:18:03;;;;;;;11.23;8.07;;;;;;;;;;5067209;28;20052;-64
2022/07/20 05:20:29;;;;;;;12.05;7.53;;;;;;;;;;5066981;28;20029;-64
2022/07/20 05:22:54;;;;;;;13.00;8.00;;;;;;;;;;5068647;28;20362;-64
2022/07/20 05:25:20;;;;;;;12.80;7.50;;;;;;;;;;5067200;28;20032;-64
2022/07/20 05:27:46;;;;;;;12.73;8.70;;;;;;;;;;5067743;28;20051;-64
2022/07/20 05:30:11;;;;;;;19.70;8.00;;;;;;;;;;5066611;28;20052;-64
2022/07/20 05:32:37;;;;;;;13.55;7.70;;;;;;;;;;5068066;28;20032;-64
2022/07/20 05:35:04;;;;;;;12.45;7.55;;;;;;;;;;5071523;28;20145;-64
2022/07/20 05:37:30;;;;;;;12.02;7.75;;;;;;;;;;5071607;28;20024;-64
2022/07/20 05:39:55;;;;;;;13.13;7.32;;;;;;;;;;5071688;28;20016;-64
2022/07/20 05:42:21;;;;;;;15.90;6.80;;;;;;;;;;5070691;28;20385;-64
2022/07/20 05:44:46;;;;;;;17.73;7.07;;;;;;;;;;5071913;28;20515;-64
2022/07/20 05:47:12;;;;;;;12.25;7.25;;;;;;;;;;5071213;28;20534;-64
2022/07/20 05:49:38;;;;;;;12.10;7.10;;;;;;;;;;5070520;28;20552;-64
2022/07/20 05:52:04;;;;;;;19.00;7.93;;;;;;;;;;5071184;28;20020;-64
2022/07/20 05:54:29;;;;;;;14.23;7.40;;;;;;;;;;5071581;28;20060;-65
2022/07/20 05:56:55;;;;;;;13.35;7.30;;;;;;;;;;5071906;28;20052;-65
2022/07/20 05:59:21;;;;;;;13.15;7.18;;;;;;;;;;5070917;28;20032;-65
2022/07/20 06:01:46;;;;;;;16.40;7.43;;;;;;;;;;5070952;28;20035;-64
2022/07/20 06:04:12;;;;;;;11.93;7.00;;;;;;;;;;5071051;28;20529;-65
2022/07/20 06:06:38;;;;;;;19.55;8.10;;;;;;;;;;5071107;28;20021;-65
2022/07/20 06:09:05;;;;;;;18.20;7.80;;;;;;;;;;5071471;28;20404;-65
2022/07/20 06:11:32;;;;;;;20.02;7.88;;;;;;;;;;5070850;28;20042;-64
2022/07/20 06:13:58;;;;;;;18.13;7.60;;;;;;;;;;5071351;28;20056;-64
2022/07/20 06:16:23;;;;;;;18.35;7.15;;;;;;;;;;5070550;28;20463;-64
2022/07/20 06:18:49;;;;;;;12.20;7.00;;;;;;;;;;5070080;28;20055;-65
2022/07/20 06:21:15;;;;;;;17.98;7.45;;;;;;;;;;5070852;28;20050;-64
2022/07/20 06:23:41;;;;;;;14.15;7.28;;;;;;;;;;5071543;28;20024;-65
2022/07/20 06:26:07;;;;;;;18.75;6.93;;;;;;;;;;5071024;28;20528;-65
2022/07/20 06:28:34;;;;;;;17.25;7.20;;;;;;;;;;5070099;28;20029;-65
2022/07/20 06:30:59;;;;;;;19.30;7.45;;;;;;;;;;5071254;28;20033;-65
2022/07/20 06:33:25;;;;;;;16.00;6.75;;;;;;;;;;5069931;28;20024;-65
2022/07/20 06:35:51;;;;;;;12.43;6.40;;;;;;;;;;5070500;28;20039;-65
2022/07/20 06:38:16;;;;;;;14.40;6.65;;;;;;;;;;5070725;28;20024;-65
2022/07/20 06:40:42;;;;;;;16.17;7.20;;;;;;;;;;5071150;28;20085;-65
2022/07/20 06:43:07;;;;;;;10.32;6.28;;;;;;;;;;5070397;28;20029;-65
2022/07/20 06:45:33;;;;;;;16.48;7.05;;;;;;;;;;5069530;28;20438;-65
2022/07/20 06:47:58;;;;;;;18.52;6.57;;;;;;;;;;5070626;28;20470;-64
2022/07/20 06:50:24;;;;;;;11.25;6.85;;;;;;;;;;5069453;28;20488;-65
2022/07/20 06:52:50;;;;;;;16.40;6.43;;;;;;;;;;5069805;28;20054;-65
2022/07/20 06:55:15;;;;;;;13.40;6.80;;;;;;;;;;5070348;28;20060;-65
2022/07/20 06:57:41;;;;;;;23.30;6.78;;;;;;;;;;5070352;28;20024;-65
2022/07/20 07:00:07;;;;;;;17.67;6.60;;;;;;;;;;5070370;28;20027;-65
2022/07/20 07:02:33;;;;;;;11.90;6.50;;;;;;;;;;5070058;28;20040;-64
2022/07/20 07:04:59;;;;;;;13.63;5.90;;;;;;;;;;5066373;28;20024;-64
2022/07/20 07:07:24;;;;;;;10.55;6.10;;;;;;;;;;5069002;28;20052;-65
2022/07/20 07:09:50;;;;;;;13.43;6.68;;;;;;;;;;5070329;28;20167;-64
2022/07/20 07:12:15;;;;;;;18.60;6.72;;;;;;;;;;5049999;28;20032;-65
2022/07/20 07:14:41;;;;;;;15.02;6.00;;;;;;;;;;5050173;28;20032;-64
2022/07/20 07:17:07;;;;;;;15.43;6.20;;;;;;;;;;5058952;28;20486;-64
2022/07/20 07:19:32;;;;;;;15.00;6.88;;;;;;;;;;5063077;28;20056;-65
2022/07/20 07:21:58;;;;;;;21.13;6.45;;;;;;;;;;5072159;28;20028;-65
2022/07/20 07:24:24;;;;;;;19.02;6.93;;;;;;;;;;5053628;28;20103;-65
2022/07/20 07:26:49;;;;;;;17.25;6.40;;;;;;;;;;5053555;28;20029;-65
2022/07/20 07:29:15;;;;;;;17.00;6.50;;;;;;;;;;5053665;28;20033;-65
2022/07/20 07:31:40;;;;;;;16.70;7.00;;;;;;;;;;5054311;28;20025;-65
2022/07/20 07:34:06;;;;;;;18.60;6.88;;;;;;;;;;5073397;28;20023;-64
2022/07/20 07:36:32;;;;;;;20.40;6.50;;;;;;;;;;5073621;28;20017;-65
2022/07/20 07:38:58;;;;;;;20.20;6.45;;;;;;;;;;5073461;28;20031;-65
2022/07/20 07:41:24;;;;;;;19.17;6.75;;;;;;;;;;5055589;28;20033;-65
2022/07/20 07:43:49;;;;;;;20.33;6.50;;;;;;;;;;5073260;28;20178;-65
2022/07/20 07:46:15;;;;;;;27.55;6.78;;;;;;;;;;5073389;28;20350;-65
2022/07/20 07:48:41;;;;;;;22.20;6.38;;;;;;;;;;5073060;28;20036;-65
2022/07/20 07:51:06;;;;;;;19.50;6.25;;;;;;;;;;5073302;28;20051;-65
2022/07/20 07:53:32;;;;;;;27.60;6.63;;;;;;;;;;5073347;28;20105;-65
2022/07/20 07:55:58;;;;;;;20.77;6.80;;;;;;;;;;5072767;28;20499;-65
2022/07/20 07:58:23;;;;;;;18.40;6.45;;;;;;;;;;5073137;28;20036;-65
2022/07/20 08:00:49;;;;;;;20.23;6.20;;;;;;;;;;5073104;28;20020;-65
2022/07/20 08:03:15;;;;;;;21.65;5.28;;;;;;;;;;5072844;28;20040;-66
2022/07/20 08:05:40;;;;;;;17.17;5.15;;;;;;;;;;5072932;28;20019;-65
2022/07/20 08:08:08;;;;;;;15.35;5.53;;;;;;;;;;5072838;28;20120;-65
2022/07/20 08:10:33;;;;;;;21.75;5.97;;;;;;;;;;5072972;28;20440;-65
2022/07/20 08:12:59;;;;;;;17.95;5.22;;;;;;;;;;5073027;28;20096;-66
2022/07/20 08:15:25;;;;;;;13.10;5.15;;;;;;;;;;5072906;28;20028;-65
2022/07/20 08:17:50;;;;;;;16.00;5.28;;;;;;;;;;5054371;28;20102;-65
2022/07/20 08:20:21;;;;;;;17.02;5.57;;;;;;;;;;5072459;28;20469;-65
2022/07/20 08:22:47;;;;;;;15.57;5.38;;;;;;;;;;5058392;28;20509;-64
2022/07/20 08:25:12;;;;;;;23.75;5.40;;;;;;;;;;5052919;28;20041;-65
2022/07/20 08:27:38;;;;;;;18.15;5.70;;;;;;;;;;5052575;28;20025;-65
2022/07/20 08:30:04;;;;;;;10.85;4.93;;;;;;;;;;5052522;28;20049;-66
2022/07/20 08:32:29;;;;;;;18.67;5.88;;;;;;;;;;5052464;28;20028;-65
2022/07/20 08:34:55;;;;;;;16.70;5.82;;;;;;;;;;5052694;28;20492;-65
2022/07/20 08:37:20;;;;;;;13.20;5.68;;;;;;;;;;5052545;28;20127;-65
2022/07/20 08:39:46;;;;;;;10.27;5.30;;;;;;;;;;5052282;28;20036;-65
2022/07/20 08:42:13;;;;;;;24.50;5.53;;;;;;;;;;5052475;28;20068;-65
2022/07/20 08:44:43;;;;;;;15.35;5.18;;;;;;;;;;5052282;28;20513;-66
2022/07/20 08:47:13;;;;;;;12.52;6.00;;;;;;;;;;5051890;28;20021;-65
2022/07/20 08:49:45;;;;;;;16.90;5.88;;;;;;;;;;5052322;28;20036;-65
2022/07/20 08:52:11;;;;;;;15.35;5.63;;;;;;;;;;5052326;28;20029;-65
2022/07/20 08:54:37;;;;;;;15.05;5.65;;;;;;;;;;5052415;28;20023;-65
2022/07/20 08:57:10;;;;;;;20.20;5.82;;;;;;;;;;5052257;28;20071;-65
2022/07/20 08:59:36;;;;;;;11.38;5.30;;;;;;;;;;5052083;28;20082;-64
2022/07/20 09:02:09;;;;;;;9.27;4.78;;;;;;;;;;5052000;28;20029;-65
2022/07/20 09:05:01;;;;;;;13.70;4.80;;;;;;;;;;5052330;28;20437;-65
2022/07/20 09:07:39;;;;;;;10.43;4.68;;;;;;;;;;5047867;28;20098;-65
2022/07/20 09:10:08;;;;;;;7.93;4.53;;;;;;;;;;5051490;28;20029;-65
2022/07/20 09:12:50;;;;;;;8.63;4.38;;;;;;;;;;5052345;28;20033;-64
2022/07/20 09:15:47;;;;;;;15.50;5.13;;;;;;;;;;5051834;28;20543;-66
2022/07/20 09:18:24;;;;;;;13.00;5.03;;;;;;;;;;5045435;28;20041;-65
2022/07/20 09:20:57;;;;;;;16.92;5.20;;;;;;;;;;5051933;28;20040;-64
2022/07/20 09:23:31;;;;;;;14.27;4.60;;;;;;;;;;5050806;28;20427;-64
2022/07/20 09:26:07;;;;;;;11.38;4.80;;;;;;;;;;5050827;28;20017;-64
2022/07/20 09:28:41;;;;;;;10.60;4.90;;;;;;;;;;5051702;28;20021;-64
2022/07/20 09:31:20;;;;;;;12.95;4.25;;;;;;;;;;5052041;28;20089;-64
2022/07/20 09:34:13;;;;;;;9.27;4.80;;;;;;;;;;5052000;28;20021;-65
2022/07/20 09:36:44;;;;;;;11.73;4.60;;;;;;;;;;5051957;28;20111;-65
2022/07/20 09:39:18;;;;;;;13.60;4.85;;;;;;;;;;5051849;28;20047;-65
2022/07/20 09:41:58;;;;;;;6.97;4.65;;;;;;;;;;5051895;28;20547;-65
2022/07/20 09:44:26;;;;;;;8.90;4.53;;;;;;;;;;5051579;28;20028;-65
2022/07/20 09:46:52;;;;;;;7.40;4.13;;;;;;;;;;5051992;28;20036;-65
2022/07/20 09:49:18;;;;;;;10.25;4.78;;;;;;;;;;5051798;28;20497;-65
2022/07/20 09:51:56;;;;;;;8.65;4.30;;;;;;;;;;5051657;28;20049;-65
2022/07/20 09:54:22;;;;;;;12.35;4.65;;;;;;;;;;5051859;28;20037;-64
2022/07/20 09:56:50;;;;;;;11.43;4.00;;;;;;;;;;5051775;28;20339;-64
2022/07/20 09:59:17;;;;;;;5.78;3.75;;;;;;;;;;5051668;28;20549;-65
2022/07/20 10:01:46;;;;;;;5.35;3.78;;;;;;;;;;5052172;28;20025;-65
2022/07/20 10:04:13;;;;;;;8.70;4.07;;;;;;;;;;5053494;28;20035;-66
2022/07/20 10:06:44;;;;;;;7.78;3.70;;;;;;;;;;5071568;28;20032;-65
2022/07/20 10:09:11;;;;;;;7.07;3.70;;;;;;;;;;5071429;28;20028;-66
2022/07/20 10:11:37;;;;;;;6.60;3.85;;;;;;;;;;5071977;28;20035;-65
2022/07/20 10:14:05;;;;;;;8.60;4.00;;;;;;;;;;5071304;28;20192;-65
2022/07/20 10:16:35;;;;;;;6.00;4.13;;;;;;;;;;5070351;28;20029;-66
2022/07/20 10:19:02;;;;;;;6.82;4.00;;;;;;;;;;5068905;28;20393;-65
2022/07/20 10:21:48;;;;;;;6.93;3.75;;;;;;;;;;5075439;28;20032;-66
2022/07/20 10:24:18;;;;;;;8.63;4.05;;;;;;;;;;5075305;28;20048;-65
2022/07/20 10:26:45;;;;;;;8.00;4.00;;;;;;;;;;5074787;28;20030;-65
2022/07/20 10:29:24;;;;;;;6.07;4.00;;;;;;;;;;5072424;28;21804;-66
2022/07/20 10:31:52;;;;;;;9.93;3.92;;;;;;;;;;5058943;28;20032;-66
2022/07/20 10:34:44;;;;;;;5.30;3.60;;;;;;;;;;5074756;28;20020;-66
2022/07/20 10:37:25;;;;;;;9.20;3.90;;;;;;;;;;5074638;28;20028;-66
2022/07/20 10:39:57;;;;;;;6.15;3.42;;;;;;;;;;5074776;28;20023;-65
2022/07/20 10:42:34;;;;;;;8.80;3.63;;;;;;;;;;5074487;28;20048;-66
2022/07/20 10:45:15;;;;;;;7.07;3.42;;;;;;;;;;5074370;28;20025;-66
2022/07/20 10:48:03;;;;;;;4.95;3.35;;;;;;;;;;5074325;28;20032;-66
2022/07/20 10:50:33;;;;;;;4.65;3.20;;;;;;;;;;5074517;28;20028;-65
2022/07/20 10:53:10;;;;;;;7.15;3.40;;;;;;;;;;5074483;28;20021;-65
2022/07/20 10:55:36;;;;;;;7.22;3.15;;;;;;;;;;5074226;28;20123;-66
2022/07/20 10:58:09;;;;;;;5.68;3.55;;;;;;;;;;5074187;28;20056;-66
2022/07/20 11:00:38;;;;;;;6.20;3.30;;;;;;;;;;5074376;28;20029;-66
2022/07/20 11:03:15;;;;;;;4.95;3.60;;;;;;;;;;5074189;28;20024;-66
2022/07/20 11:05:42;;;;;;;4.05;2.80;;;;;;;;;;5074372;28;20052;-66
2022/07/20 11:08:10;;;;;;;5.47;2.97;;;;;;;;;;5073822;28;20359;-66
2022/07/20 11:10:36;;;;;;;13.15;3.70;;;;;;;;;;5073964;28;20108;-64
2022/07/20 11:13:05;;;;;;;6.93;3.17;;;;;;;;;;5073932;28;20450;-64
2022/07/20 11:15:42;;;;;;;9.80;3.63;;;;;;;;;;5073993;28;20436;-64
2022/07/20 11:18:10;;;;;;;5.15;3.20;;;;;;;;;;5073947;28;20062;-65
2022/07/20 11:20:43;;;;;;;11.77;3.17;;;;;;;;;;5073988;28;20063;-65
2022/07/20 11:23:09;;;;;;;6.72;3.53;;;;;;;;;;5073926;28;20052;-65
2022/07/20 11:25:55;;;;;;;5.13;3.20;;;;;;;;;;5073723;28;20059;-65
2022/07/20 11:28:26;;;;;;;9.52;3.60;;;;;;;;;;5073655;28;20060;-65
2022/07/20 11:30:54;;;;;;;6.30;3.40;;;;;;;;;;5072952;28;20059;-64
2022/07/20 11:33:26;;;;;;;5.18;3.40;;;;;;;;;;5073630;28;20020;-65
2022/07/20 11:35:54;;;;;;;6.57;3.30;;;;;;;;;;5073608;28;20021;-66
2022/07/20 11:38:19;;;;;;;4.90;3.45;;;;;;;;;;5073410;28;20043;-65
2022/07/20 11:40:59;;;;;;;9.27;3.25;;;;;;;;;;5073324;28;20469;-65
2022/07/20 11:43:24;;;;;;;7.93;3.20;;;;;;;;;;5073535;28;20024;-66
2022/07/20 11:45:50;;;;;;;11.15;3.55;;;;;;;;;;5073533;28;20464;-65
2022/07/20 11:48:26;;;;;;;7.28;3.40;;;;;;;;;;5073780;28;20017;-65
2022/07/20 11:50:52;;;;;;;9.32;3.20;;;;;;;;;;5075397;28;20034;-65
2022/07/20 11:53:28;;;;;;;7.20;3.20;;;;;;;;;;5074036;28;20032;-65
2022/07/20 11:55:55;;;;;;;5.72;3.63;;;;;;;;;;5073042;28;20020;-65
2022/07/20 11:58:34;;;;;;;9.85;3.40;;;;;;;;;;5073164;28;20066;-65
2022/07/20 12:01:03;;;;;;;5.80;3.15;;;;;;;;;;5055225;28;20428;-65
2022/07/20 12:03:38;;;;;;;7.20;3.25;;;;;;;;;;5072941;28;20547;-65
2022/07/20 12:06:09;;;;;;;7.72;3.03;;;;;;;;;;5072656;28;20554;-65
2022/07/20 12:08:36;;;;;;;8.60;3.38;;;;;;;;;;5072757;28;20112;-65
2022/07/20 12:11:02;;;;;;;6.57;3.20;;;;;;;;;;5072863;28;20081;-65
2022/07/20 12:13:29;;;;;;;5.53;3.30;;;;;;;;;;5072978;28;20028;-65
2022/07/20 12:16:05;;;;;;;7.43;3.22;;;;;;;;;;5072735;28;20025;-65
2022/07/20 12:18:34;;;;;;;7.38;3.00;;;;;;;;;;5072528;28;20106;-65
2022/07/20 12:21:01;;;;;;;;;;;;;;;;;;5073085;28;20037;-65
2022/07/20 12:23:27;;;;;;;9.13;3.30;;;;;;;;;;5072579;28;19920;-65
2022/07/20 12:25:53;;;;;;;6.32;3.28;;;;;;;;;;5072280;28;20035;-64
2022/07/20 12:28:37;;;;;;;5.22;3.40;;;;;;;;;;5072417;28;20381;-65
2022/07/20 12:31:11;;;;;;;7.43;3.25;;;;;;;;;;5072581;28;20333;-65
2022/07/20 12:33:37;;;;;;;8.20;3.60;;;;;;;;;;5072464;28;20012;-65
2022/07/20 12:36:05;;;;;;;8.65;3.10;;;;;;;;;;5072366;28;20031;-65
2022/07/20 12:38:34;;;;;;;7.55;3.30;;;;;;;;;;5072436;28;20093;-65
2022/07/20 12:41:10;;;;;;;6.10;3.55;;;;;;;;;;5072173;28;20484;-65
2022/07/20 12:43:40;;;;;;;5.70;3.10;;;;;;;;;;5067880;28;20168;-65
2022/07/20 12:46:13;;;;;;;5.78;3.38;;;;;;;;;;5072207;28;20047;-65
2022/07/20 12:48:42;;;;;;;8.43;3.47;;;;;;;;;;5072350;28;20077;-65
2022/07/20 12:51:10;;;;;;;5.97;3.20;;;;;;;;;;5072345;28;20032;-65
2022/07/20 12:53:36;;;;;;;6.60;3.30;;;;;;;;;;5067777;28;20086;-64
2022/07/20 12:56:04;;;;;;;7.60;3.30;;;;;;;;;;5058069;28;20028;-65
2022/07/20 12:58:30;;;;;;;11.10;3.30;;;;;;;;;;5059974;28;20059;-65
2022/07/20 13:00:56;;;;;;;7.10;3.47;;;;;;;;;;5060689;28;20521;-65
2022/07/20 13:03:21;;;;;;;9.45;3.58;;;;;;;;;;5061344;28;20031;-65
2022/07/20 13:05:47;;;;;;;4.90;3.40;;;;;;;;;;5061438;28;20535;-65
2022/07/20 13:08:13;;;;;;;5.68;2.90;;;;;;;;;;5060174;28;20025;-65
2022/07/20 13:10:38;;;;;;;7.40;2.88;;;;;;;;;;5060542;28;20114;-64
2022/07/20 13:13:04;;;;;;;13.73;4.15;;;;;;;;;;5061604;28;20040;-64
2022/07/20 13:15:29;;;;;;;7.07;2.95;;;;;;;;;;5061734;28;20025;-64
2022/07/20 13:17:55;;;;;;;4.60;3.17;;;;;;;;;;5060154;28;20044;-65
2022/07/20 13:20:22;;;;;;;5.95;3.13;;;;;;;;;;5059756;28;20033;-64
2022/07/20 13:22:48;;;;;;;7.18;3.35;;;;;;;;;;5071491;28;20028;-64
2022/07/20 13:25:13;;;;;;;7.70;3.33;;;;;;;;;;5071985;28;20556;-65
2022/07/20 13:27:39;;;;;;;6.25;3.22;;;;;;;;;;5072308;28;20350;-64
2022/07/20 13:30:06;;;;;;;6.93;3.35;;;;;;;;;;5071792;28;20447;-65
2022/07/20 13:32:32;;;;;;;7.20;3.10;;;;;;;;;;5071940;28;20032;-65
2022/07/20 13:34:57;;;;;;;9.10;2.83;;;;;;;;;;5071701;28;20025;-65
2022/07/20 13:37:23;;;;;;;4.65;2.83;;;;;;;;;;5071943;28;20033;-66
2022/07/20 13:39:48;;;;;;;5.75;2.83;;;;;;;;;;5070123;28;20029;-64
2022/07/20 13:42:14;;;;;;;5.25;3.00;;;;;;;;;;5071848;28;20056;-66
2022/07/20 13:44:41;;;;;;;4.35;2.63;;;;;;;;;;5071742;28;20032;-64
2022/07/20 13:47:07;;;;;;;6.05;2.95;;;;;;;;;;5070976;28;20021;-65
2022/07/20 13:49:33;;;;;;;7.50;2.70;;;;;;;;;;5071578;28;20105;-65
2022/07/20 13:51:59;;;;;;;5.93;2.67;;;;;;;;;;5071794;28;20032;-66
2022/07/20 13:54:25;;;;;;;6.43;2.90;;;;;;;;;;5072599;28;20417;-65
2022/07/20 13:56:51;;;;;;;8.85;2.88;;;;;;;;;;5075510;28;20480;-65
2022/07/20 13:59:16;;;;;;;4.95;2.97;;;;;;;;;;5075414;28;20036;-65
2022/07/20 14:01:42;;;;;;;10.00;2.88;;;;;;;;;;5075471;28;20025;-65
2022/07/20 14:04:12;;;;;;;7.10;2.63;;;;;;;;;;5075106;28;20029;-64
2022/07/20 14:06:39;;;;;;;7.13;2.90;;;;;;;;;;5074900;28;20024;-64
2022/07/20 14:09:05;;;;;;;10.25;3.17;;;;;;;;;;5075135;28;20162;-65
2022/07/20 14:11:31;;;;;;;11.00;3.10;;;;;;;;;;5075351;28;20099;-65
2022/07/20 14:13:56;;;;;;;5.47;2.75;;;;;;;;;;5065617;28;20113;-64
2022/07/20 14:16:22;;;;;;;6.47;3.00;;;;;;;;;;5054997;28;20091;-65
2022/07/20 14:18:48;;;;;;;5.70;3.17;;;;;;;;;;5054558;28;20049;-65
2022/07/20 14:21:15;;;;;;;5.68;3.00;;;;;;;;;;5055036;28;20399;-65
2022/07/20 14:23:42;;;;;;;6.03;3.40;;;;;;;;;;5055120;28;20035;-65
2022/07/20 14:26:09;;;;;;;8.27;3.28;;;;;;;;;;5054779;28;20470;-64
2022/07/20 14:28:35;;;;;;;5.72;3.10;;;;;;;;;;5054776;28;20107;-65
2022/07/20 14:31:00;;;;;;;6.22;3.10;;;;;;;;;;5054924;28;20024;-65
2022/07/20 14:33:26;;;;;;;8.40;2.95;;;;;;;;;;5054406;28;20024;-65
2022/07/20 14:35:52;;;;;;;7.25;3.35;;;;;;;;;;5054776;28;20044;-64
2022/07/20 14:38:17;;;;;;;6.60;3.38;;;;;;;;;;5054427;28;20041;-65
2022/07/20 14:40:43;;;;;;;5.30;2.83;;;;;;;;;;5054459;28;20359;-65
2022/07/20 14:43:09;;;;;;;5.32;2.97;;;;;;;;;;5054567;28;20029;-65
2022/07/20 14:45:34;;;;;;;6.45;3.25;;;;;;;;;;5054633;28;20021;-65